createdAt,value
2023-02-12T00:00:03.836Z,17.40
2023-02-12T00:03:07.713Z,14.30
2023-02-12T00:05:42.420Z,14.02
2023-02-12T00:08:16.593Z,15.38
2023-02-12T00:10:49.154Z,15.93
2023-02-12T00:13:22.255Z,16.75
2023-02-12T00:15:55.243Z,18.05
2023-02-12T00:18:28.359Z,16.02
2023-02-12T00:21:01.435Z,24.88
2023-02-12T00:23:34.742Z,12.73
2023-02-12T00:26:07.999Z,21.70
2023-02-12T00:28:41.226Z,10.65
2023-02-12T00:31:15.472Z,24.40
2023-02-12T00:33:48.440Z,22.83
2023-02-12T00:36:24.147Z,14.63
2023-02-12T00:38:57.224Z,24.67
2023-02-12T00:41:30.487Z,17.83
2023-02-12T00:44:03.325Z,12.25
2023-02-12T00:46:35.937Z,17.33
2023-02-12T00:49:08.920Z,14.48
2023-02-12T00:51:41.424Z,22.30
2023-02-12T00:54:27.630Z,15.73
2023-02-12T00:57:01.846Z,25.63
2023-02-12T00:59:38.392Z,16.90
2023-02-12T01:02:10.944Z,13.82
2023-02-12T01:04:44.113Z,18.25
2023-02-12T01:07:16.821Z,22.02
2023-02-12T01:09:50.030Z,19.20
2023-02-12T01:12:22.597Z,25.15
2023-02-12T01:14:55.436Z,21.58
2023-02-12T01:17:28.005Z,19.77
2023-02-12T01:20:00.907Z,16.08
2023-02-12T01:22:37.359Z,26.08
2023-02-12T01:25:14.020Z,22.88
2023-02-12T01:27:46.618Z,21.40
2023-02-12T01:30:22.427Z,19.98
2023-02-12T01:32:56.873Z,14.23
2023-02-12T01:35:29.831Z,13.50
2023-02-12T01:38:02.539Z,17.95
2023-02-12T01:40:37.683Z,17.35
2023-02-12T01:43:17.135Z,17.83
2023-02-12T01:45:54.089Z,18.98
2023-02-12T01:48:28.637Z,19.55
2023-02-12T01:51:06.070Z,19.05
2023-02-12T01:53:44.169Z,28.10
2023-02-12T01:56:18.574Z,11.50
2023-02-12T01:58:52.144Z,18.70
2023-02-12T02:01:27.150Z,16.63
2023-02-12T02:04:05.386Z,13.15
2023-02-12T02:06:56.950Z,24.35
2023-02-12T02:09:30.645Z,18.92
2023-02-12T02:12:22.496Z,17.38
2023-02-12T02:14:56.885Z,25.85
2023-02-12T02:17:30.217Z,20.48
2023-02-12T02:20:21.690Z,18.60
2023-02-12T02:22:54.568Z,25.23
2023-02-12T02:25:27.132Z,21.35
2023-02-12T02:28:07.071Z,17.13
2023-02-12T02:30:55.878Z,12.68
2023-02-12T02:33:46.072Z,23.55
2023-02-12T02:36:59.320Z,19.92
2023-02-12T02:39:45.921Z,16.60
2023-02-12T02:42:18.457Z,14.88
2023-02-12T02:44:55.521Z,16.83
2023-02-12T02:47:39.354Z,16.80
2023-02-12T02:50:16.789Z,17.02
2023-02-12T02:52:58.458Z,13.90
2023-02-12T02:55:37.585Z,24.13
2023-02-12T02:58:16.638Z,19.02
2023-02-12T03:00:57.469Z,23.13
2023-02-12T03:03:32.852Z,12.88
2023-02-12T03:06:12.797Z,13.88
2023-02-12T03:08:54.150Z,17.85
2023-02-12T03:11:31.799Z,14.30
2023-02-12T03:14:20.634Z,15.43
2023-02-12T03:16:56.782Z,30.67
2023-02-12T03:19:31.350Z,14.40
2023-02-12T03:22:04.264Z,18.75
2023-02-12T03:24:39.433Z,17.75
2023-02-12T03:27:30.584Z,21.00
2023-02-12T03:30:04.418Z,18.13
2023-02-12T03:32:50.041Z,20.05
2023-02-12T03:35:29.785Z,19.05
2023-02-12T03:38:05.760Z,14.57
2023-02-12T03:40:40.712Z,20.27
2023-02-12T03:43:14.927Z,20.73
2023-02-12T03:46:00.780Z,23.08
2023-02-12T03:48:37.188Z,15.35
2023-02-12T03:51:09.640Z,26.45
2023-02-12T03:53:46.551Z,20.42
2023-02-12T03:56:28.015Z,17.38
2023-02-12T03:59:00.978Z,22.05
2023-02-12T04:01:34.581Z,22.63
2023-02-12T04:04:09.300Z,15.93
2023-02-12T04:06:42.360Z,19.15
2023-02-12T04:09:20.879Z,23.40
2023-02-12T04:12:12.253Z,17.25
2023-02-12T04:15:06.702Z,13.88
2023-02-12T04:20:17.579Z,18.42
2023-02-12T04:22:55.996Z,19.98
2023-02-12T04:25:47.883Z,20.10
2023-02-12T04:28:40.480Z,19.77
2023-02-12T04:31:20.441Z,18.73
2023-02-12T04:34:11.740Z,12.02
2023-02-12T04:37:12.248Z,16.75
2023-02-12T04:39:47.544Z,15.57
2023-02-12T04:42:20.757Z,14.77
2023-02-12T04:44:53.385Z,15.40
2023-02-12T04:47:26.386Z,16.83
2023-02-12T04:50:00.531Z,16.88
2023-02-12T04:52:33.879Z,24.63
2023-02-12T04:55:06.652Z,24.98
2023-02-12T04:57:39.520Z,19.30
2023-02-12T05:00:13.689Z,26.35
2023-02-12T05:02:46.951Z,16.50
2023-02-12T05:05:19.563Z,27.67
2023-02-12T05:07:52.480Z,16.00
2023-02-12T05:10:24.972Z,17.70
2023-02-12T05:12:57.947Z,17.63
2023-02-12T05:15:30.574Z,15.20
2023-02-12T05:18:03.486Z,16.52
2023-02-12T05:20:36.044Z,13.98
2023-02-12T05:23:08.896Z,20.65
2023-02-12T05:25:41.444Z,25.55
2023-02-12T05:28:14.284Z,27.48
2023-02-12T05:30:46.921Z,15.85
2023-02-12T05:33:19.825Z,14.98
2023-02-12T05:35:52.978Z,18.30
2023-02-12T05:38:26.473Z,17.70
2023-02-12T05:41:06.066Z,17.48
2023-02-12T05:43:39.402Z,20.85
2023-02-12T05:46:12.849Z,17.17
2023-02-12T05:48:45.761Z,21.08
2023-02-12T05:51:23.288Z,15.20
2023-02-12T05:53:58.174Z,24.15
2023-02-12T05:56:32.692Z,19.58
2023-02-12T05:59:09.665Z,23.08
2023-02-12T06:01:43.071Z,14.98
2023-02-12T06:04:21.109Z,28.75
2023-02-12T06:06:54.423Z,19.27
2023-02-12T06:09:27.367Z,29.75
2023-02-12T06:12:00.227Z,45.33
2023-02-12T06:14:33.248Z,38.20
2023-02-12T06:17:05.765Z,40.08
2023-02-12T06:19:38.658Z,33.42
2023-02-12T06:22:11.269Z,51.65
2023-02-12T06:24:44.217Z,109.68
2023-02-12T06:27:16.784Z,71.05
2023-02-12T06:29:49.696Z,46.70
2023-02-12T06:32:22.903Z,32.25
2023-02-12T06:34:55.958Z,27.02
2023-02-12T06:37:28.386Z,20.90
2023-02-12T06:40:01.237Z,25.58
2023-02-12T06:42:33.787Z,24.92
2023-02-12T06:45:06.804Z,16.50
2023-02-12T06:47:39.437Z,16.60
2023-02-12T06:50:12.442Z,11.85
2023-02-12T06:52:45.119Z,10.35
2023-02-12T06:55:18.060Z,18.20
2023-02-12T06:57:51.162Z,17.30
2023-02-12T07:00:24.217Z,17.17
2023-02-12T07:02:57.145Z,20.90
2023-02-12T07:05:30.230Z,29.15
2023-02-12T07:08:02.687Z,20.95
2023-02-12T07:10:35.636Z,25.45
2023-02-12T07:13:08.487Z,20.67
2023-02-12T07:15:41.344Z,26.52
2023-02-12T07:18:13.970Z,32.92
2023-02-12T07:20:46.879Z,25.90
2023-02-12T07:23:19.725Z,24.10
2023-02-12T07:25:57.045Z,31.05
2023-02-12T07:28:33.923Z,19.70
2023-02-12T07:31:25.286Z,18.90
2023-02-12T07:33:59.122Z,13.73
2023-02-12T07:36:33.264Z,16.88
2023-02-12T07:39:06.004Z,52.75
2023-02-12T07:41:38.877Z,37.90
2023-02-12T07:44:12.791Z,33.83
2023-02-12T07:46:48.529Z,92.40
2023-02-12T07:49:22.472Z,46.22
2023-02-12T07:51:57.134Z,45.40
2023-02-12T07:54:29.661Z,42.22
2023-02-12T07:57:02.580Z,16.63
2023-02-12T07:59:35.377Z,17.70
2023-02-12T08:02:10.448Z,22.98
2023-02-12T08:04:43.113Z,24.17
2023-02-12T08:07:16.244Z,26.73
2023-02-12T08:09:48.834Z,17.92
2023-02-12T08:12:21.871Z,21.02
2023-02-12T08:14:54.964Z,16.38
2023-02-12T08:17:28.141Z,11.30
2023-02-12T08:20:00.678Z,24.48
2023-02-12T08:22:33.516Z,24.23
2023-02-12T08:25:06.352Z,15.70
2023-02-12T08:27:41.436Z,24.80
2023-02-12T08:30:15.448Z,9.20
2023-02-12T08:32:49.795Z,21.08
2023-02-12T08:35:22.369Z,16.23
2023-02-12T08:37:55.339Z,15.55
2023-02-12T08:40:27.862Z,14.43
2023-02-12T08:43:00.843Z,12.98
2023-02-12T08:45:33.451Z,8.30
2023-02-12T08:48:06.358Z,21.02
2023-02-12T08:50:39.354Z,12.82
2023-02-12T08:53:12.225Z,11.48
2023-02-12T08:55:48.797Z,14.15
2023-02-12T08:58:21.846Z,14.23
2023-02-12T09:00:54.469Z,10.18
2023-02-12T09:03:27.539Z,10.77
2023-02-12T09:06:02.504Z,10.43
2023-02-12T09:08:36.012Z,15.02
2023-02-12T09:11:16.890Z,17.80
2023-02-12T09:13:49.890Z,5.80
2023-02-12T09:16:22.531Z,12.32
2023-02-12T09:18:55.821Z,13.98
2023-02-12T09:21:28.359Z,22.08
2023-02-12T09:24:01.823Z,16.88
2023-02-12T09:26:34.316Z,7.20
2023-02-12T09:29:07.246Z,8.45
2023-02-12T09:31:39.867Z,8.25
2023-02-12T09:34:13.065Z,10.45
2023-02-12T09:36:45.826Z,19.67
2023-02-12T09:39:18.937Z,15.98
2023-02-12T09:42:00.469Z,12.88
2023-02-12T09:47:14.582Z,18.60
2023-02-12T09:49:59.063Z,12.13
2023-02-12T09:52:32.387Z,12.88
2023-02-12T09:55:05.602Z,18.15
2023-02-12T09:57:38.493Z,10.07
2023-02-12T10:00:11.650Z,19.50
2023-02-12T10:02:44.252Z,13.57
2023-02-12T10:05:24.327Z,15.18
2023-02-12T10:07:56.771Z,9.13
2023-02-12T10:10:35.652Z,8.98
2023-02-12T10:13:28.374Z,5.90
2023-02-12T10:16:19.396Z,19.90
2023-02-12T10:18:51.935Z,14.02
2023-02-12T10:21:43.304Z,11.93
2023-02-12T10:24:34.720Z,15.55
2023-02-12T10:27:16.973Z,14.80
2023-02-12T10:32:28.072Z,28.20
2023-02-12T10:35:00.840Z,16.02
2023-02-12T10:37:41.302Z,14.73
2023-02-12T10:40:22.508Z,11.60
2023-02-12T10:42:55.985Z,12.75
2023-02-12T10:45:33.265Z,14.88
2023-02-12T10:48:20.759Z,11.82
2023-02-12T10:51:08.666Z,21.88
2023-02-12T10:53:43.783Z,23.90
2023-02-12T10:56:18.863Z,19.88
2023-02-12T10:59:01.866Z,13.60
2023-02-12T11:01:37.081Z,10.63
2023-02-12T11:04:18.938Z,16.85
2023-02-12T11:07:02.458Z,23.08
2023-02-12T11:09:45.900Z,12.32
2023-02-12T11:12:26.020Z,18.42
2023-02-12T11:15:00.645Z,27.88
2023-02-12T11:17:37.551Z,15.43
2023-02-12T11:20:16.494Z,17.40
2023-02-12T11:22:53.939Z,18.60
2023-02-12T11:25:28.888Z,82.78
2023-02-12T11:28:04.627Z,18.92
2023-02-12T11:30:48.744Z,31.42
2023-02-12T11:33:28.653Z,24.35
2023-02-12T11:36:01.915Z,33.08
2023-02-12T11:38:37.138Z,26.60
2023-02-12T11:41:30.269Z,21.20
2023-02-12T11:44:09.465Z,17.13
2023-02-12T11:46:47.171Z,36.85
2023-02-12T11:49:21.813Z,16.35
2023-02-12T11:51:54.994Z,24.35
2023-02-12T11:54:29.640Z,23.58
2023-02-12T11:57:02.622Z,21.13
2023-02-12T11:59:41.235Z,25.75
2023-02-12T12:02:23.457Z,22.02
2023-02-12T12:07:34.334Z,15.05
2023-02-12T12:10:13.117Z,20.70
2023-02-12T12:12:48.537Z,17.33
2023-02-12T12:15:47.323Z,19.20
2023-02-12T12:18:50.783Z,19.52
2023-02-12T12:21:29.115Z,21.58
2023-02-12T12:24:04.772Z,15.88
2023-02-12T12:26:39.989Z,13.93
2023-02-12T12:29:27.560Z,23.25
2023-02-12T12:32:01.876Z,23.80
2023-02-12T12:34:34.945Z,40.60
2023-02-12T12:37:16.334Z,14.10
2023-02-12T12:40:12.617Z,15.50
2023-02-12T12:42:51.082Z,17.95
2023-02-12T12:45:43.275Z,15.55
2023-02-12T12:48:24.713Z,15.80
2023-02-12T12:51:00.649Z,31.20
2023-02-12T12:53:42.492Z,15.57
2023-02-12T12:56:34.001Z,12.63
2023-02-12T12:59:12.707Z,19.63
2023-02-12T13:01:51.849Z,21.05
2023-02-12T13:04:33.326Z,20.13
2023-02-12T13:09:38.414Z,18.73
2023-02-12T13:12:25.116Z,14.20
2023-02-12T13:15:03.984Z,13.90
2023-02-12T13:17:55.410Z,61.88
2023-02-12T13:20:28.197Z,11.13
2023-02-12T13:23:03.786Z,77.65
2023-02-12T13:25:54.451Z,64.70
2023-02-12T13:28:47.713Z,21.47
2023-02-12T13:31:32.977Z,16.98
2023-02-12T13:34:08.068Z,26.52
2023-02-12T13:36:41.502Z,14.50
2023-02-12T13:39:17.518Z,15.48
2023-02-12T13:41:56.847Z,18.95
2023-02-12T13:44:33.279Z,15.55
2023-02-12T13:47:23.004Z,17.65
2023-02-12T13:50:03.384Z,24.33
2023-02-12T13:52:49.469Z,13.90
2023-02-12T13:55:30.058Z,11.63
2023-02-12T13:58:21.382Z,18.77
2023-02-12T14:00:54.323Z,14.20
2023-02-12T14:03:27.900Z,19.35
2023-02-12T14:06:11.555Z,8.63
2023-02-12T14:08:47.038Z,12.93
2023-02-12T14:11:22.103Z,29.00
2023-02-12T14:13:57.149Z,28.17
2023-02-12T14:16:30.121Z,14.25
2023-02-12T14:19:21.590Z,19.38
2023-02-12T14:21:54.549Z,16.45
2023-02-12T14:24:39.152Z,11.43
2023-02-12T14:27:27.378Z,12.90
2023-02-12T14:30:04.366Z,19.77
2023-02-12T14:32:56.090Z,9.52
2023-02-12T14:35:36.384Z,13.52
2023-02-12T14:38:12.165Z,23.45
2023-02-12T14:40:48.542Z,24.40
2023-02-12T14:43:30.779Z,9.43
2023-02-12T14:46:21.936Z,9.05
2023-02-12T14:49:01.059Z,12.77
2023-02-12T14:51:38.707Z,18.60
2023-02-12T14:54:15.858Z,13.45
2023-02-12T14:56:49.626Z,17.45
2023-02-12T14:59:24.712Z,12.15
2023-02-12T15:01:59.693Z,22.73
2023-02-12T15:04:33.981Z,30.38
2023-02-12T15:07:12.435Z,40.95
2023-02-12T15:09:48.502Z,30.80
2023-02-12T15:12:22.911Z,28.13
2023-02-12T15:15:09.073Z,32.00
2023-02-12T15:17:42.864Z,17.92
2023-02-12T15:20:26.747Z,35.38
2023-02-12T15:22:59.819Z,26.00
2023-02-12T15:25:33.258Z,52.42
2023-02-12T15:28:24.488Z,42.67
2023-02-12T15:30:57.806Z,81.72
2023-02-12T15:33:32.924Z,86.30
2023-02-12T15:36:07.376Z,73.93
2023-02-12T15:38:44.316Z,40.95
2023-02-12T15:41:37.043Z,43.80
2023-02-12T15:44:24.151Z,35.45
2023-02-12T15:47:02.288Z,34.72
2023-02-12T15:49:36.102Z,39.72
2023-02-12T15:52:11.724Z,49.80
2023-02-12T15:54:45.330Z,28.52
2023-02-12T15:57:24.770Z,30.65
2023-02-12T16:00:00.071Z,21.52
2023-02-12T16:02:35.742Z,24.27
2023-02-12T16:05:11.966Z,19.77
2023-02-12T16:07:45.444Z,18.70
2023-02-12T16:10:19.564Z,24.65
2023-02-12T16:12:52.682Z,32.97
2023-02-12T16:15:27.322Z,30.65
2023-02-12T16:18:04.342Z,36.38
2023-02-12T16:20:37.335Z,31.40
2023-02-12T16:23:12.484Z,26.85
2023-02-12T16:25:53.111Z,35.35
2023-02-12T16:28:28.439Z,23.70
2023-02-12T16:31:08.671Z,27.70
2023-02-12T16:33:45.262Z,36.45
2023-02-12T16:36:20.628Z,42.25
2023-02-12T16:38:54.715Z,31.38
2023-02-12T16:41:28.232Z,34.50
2023-02-12T16:44:01.277Z,37.08
2023-02-12T16:46:44.253Z,45.15
2023-02-12T16:49:18.180Z,53.10
2023-02-12T16:51:51.171Z,51.38
2023-02-12T16:54:28.923Z,32.13
2023-02-12T16:57:02.127Z,50.13
2023-02-12T16:59:35.317Z,49.83
2023-02-12T17:02:14.843Z,34.47
2023-02-12T17:04:47.866Z,35.15
2023-02-12T17:07:21.843Z,36.22
2023-02-12T17:09:55.461Z,40.10
2023-02-12T17:12:28.428Z,48.63
2023-02-12T17:15:04.119Z,43.25
2023-02-12T17:17:36.592Z,38.28
2023-02-12T17:20:10.045Z,44.58
2023-02-12T17:22:46.448Z,48.38
2023-02-12T17:25:19.445Z,47.95
2023-02-12T17:27:51.992Z,44.20
2023-02-12T17:30:26.919Z,47.65
2023-02-12T17:32:59.455Z,54.33
2023-02-12T17:35:32.414Z,52.03
2023-02-12T17:38:05.516Z,48.03
2023-02-12T17:40:38.932Z,42.70
2023-02-12T17:43:11.500Z,57.83
2023-02-12T17:45:44.464Z,58.38
2023-02-12T17:48:17.772Z,62.13
2023-02-12T17:50:53.774Z,54.42
2023-02-12T17:53:26.387Z,43.38
2023-02-12T17:55:59.569Z,46.85
2023-02-12T17:58:32.108Z,71.57
2023-02-12T18:01:09.415Z,81.15
2023-02-12T18:03:42.430Z,64.38
2023-02-12T18:06:21.445Z,73.25
2023-02-12T18:08:54.205Z,100.05
2023-02-12T18:11:28.027Z,120.32
2023-02-12T18:14:01.031Z,65.95
2023-02-12T18:16:34.986Z,76.95
2023-02-12T18:19:07.600Z,91.40
2023-02-12T18:21:40.868Z,95.05
2023-02-12T18:24:14.158Z,82.38
2023-02-12T18:26:47.397Z,73.00
2023-02-12T18:29:19.854Z,53.22
2023-02-12T18:31:54.852Z,40.05
2023-02-12T18:34:27.814Z,39.05
2023-02-12T18:37:01.064Z,40.28
2023-02-12T18:39:33.632Z,48.33
2023-02-12T18:42:06.785Z,43.33
2023-02-12T18:44:39.395Z,52.45
2023-02-12T18:47:12.234Z,49.80
2023-02-12T18:49:44.757Z,46.33
2023-02-12T18:52:17.604Z,48.92
2023-02-12T18:54:50.142Z,47.65
2023-02-12T18:57:23.017Z,63.25
2023-02-12T18:59:55.473Z,51.88
2023-02-12T19:02:28.436Z,60.50
2023-02-12T19:05:01.268Z,46.75
2023-02-12T19:07:34.245Z,43.60
2023-02-12T19:10:07.078Z,37.13
2023-02-12T19:12:39.952Z,47.97
2023-02-12T19:15:13.211Z,51.88
2023-02-12T19:17:46.070Z,54.47
2023-02-12T19:23:05.337Z,59.22
2023-02-12T19:25:45.885Z,50.28
2023-02-12T19:28:18.804Z,52.07
2023-02-12T19:30:51.748Z,47.80
2023-02-12T19:33:25.145Z,43.33
2023-02-12T19:35:57.971Z,57.55
2023-02-12T19:38:31.247Z,50.95
2023-02-12T19:41:08.362Z,61.50
2023-02-12T19:43:41.701Z,61.10
2023-02-12T19:46:16.018Z,71.45
2023-02-12T19:48:49.121Z,68.60
2023-02-12T19:51:22.492Z,144.68
2023-02-12T19:53:56.759Z,188.10
2023-02-12T19:56:29.317Z,126.00
2023-02-12T19:59:02.566Z,103.43
2023-02-12T20:01:35.555Z,129.23
2023-02-12T20:04:08.561Z,99.72
2023-02-12T20:06:42.193Z,86.47
2023-02-12T20:09:15.336Z,72.43
2023-02-12T20:11:47.958Z,57.30
2023-02-12T20:14:22.991Z,53.15
2023-02-12T20:16:56.194Z,63.17
2023-02-12T20:19:30.910Z,58.92
2023-02-12T20:22:04.916Z,65.07
2023-02-12T20:24:37.851Z,48.40
2023-02-12T20:27:12.037Z,52.17
2023-02-12T20:29:44.886Z,55.63
2023-02-12T20:32:17.435Z,44.08
2023-02-12T20:34:53.169Z,56.95
2023-02-12T20:37:26.221Z,45.50
2023-02-12T20:39:59.240Z,51.10
2023-02-12T20:42:32.124Z,47.40
2023-02-12T20:45:05.733Z,45.97
2023-02-12T20:47:38.751Z,46.65
2023-02-12T20:50:11.673Z,43.58
2023-02-12T20:52:44.414Z,46.58
2023-02-12T20:55:17.292Z,55.97
2023-02-12T20:57:50.014Z,42.45
2023-02-12T21:00:23.108Z,53.47
2023-02-12T21:02:55.721Z,36.88
2023-02-12T21:05:29.255Z,42.05
2023-02-12T21:08:02.160Z,41.15
2023-02-12T21:10:35.491Z,49.00
2023-02-12T21:13:08.022Z,42.78
2023-02-12T21:15:41.097Z,39.78
2023-02-12T21:18:13.740Z,38.65
2023-02-12T21:20:46.600Z,49.50
2023-02-12T21:23:19.077Z,50.10
2023-02-12T21:25:58.876Z,61.92
2023-02-12T21:28:32.609Z,57.97
2023-02-12T21:31:09.835Z,39.50
2023-02-12T21:33:43.733Z,45.15
2023-02-12T21:36:19.524Z,32.00
2023-02-12T21:38:53.119Z,30.88
2023-02-12T21:41:27.698Z,34.35
2023-02-12T21:44:02.055Z,35.83
2023-02-12T21:46:35.586Z,43.95
2023-02-12T21:49:08.443Z,64.72
2023-02-12T21:51:42.145Z,53.22
2023-02-12T21:54:18.192Z,34.58
2023-02-12T21:56:51.386Z,46.20
2023-02-12T21:59:25.197Z,42.42
2023-02-12T22:01:59.393Z,34.70
2023-02-12T22:04:31.883Z,42.33
2023-02-12T22:07:04.854Z,39.40
2023-02-12T22:09:37.551Z,33.58
2023-02-12T22:12:10.417Z,45.83
2023-02-12T22:14:42.918Z,38.42
2023-02-12T22:17:15.831Z,36.80
2023-02-12T22:19:48.320Z,45.97
2023-02-12T22:22:21.238Z,44.35
2023-02-12T22:24:53.824Z,53.40
2023-02-12T22:27:26.713Z,58.22
2023-02-12T22:29:59.268Z,56.70
2023-02-12T22:32:32.352Z,46.67
2023-02-12T22:35:05.326Z,45.78
2023-02-12T22:37:41.891Z,41.13
2023-02-12T22:40:14.734Z,44.83
2023-02-12T22:42:47.626Z,52.65
2023-02-12T22:45:20.170Z,40.00
2023-02-12T22:47:53.065Z,41.75
2023-02-12T22:50:25.535Z,43.35
2023-02-12T22:52:58.455Z,44.90
2023-02-12T22:55:31.018Z,37.90
2023-02-12T22:58:03.971Z,44.80
2023-02-12T23:00:37.117Z,42.65
2023-02-12T23:03:10.378Z,39.40
2023-02-12T23:05:42.975Z,40.13
2023-02-12T23:08:15.840Z,34.03
2023-02-12T23:10:48.266Z,35.20
2023-02-12T23:13:29.355Z,55.15
2023-02-12T23:16:03.341Z,28.05
2023-02-12T23:18:36.330Z,39.53
2023-02-12T23:21:08.850Z,35.50
2023-02-12T23:23:41.967Z,43.85
2023-02-12T23:26:14.469Z,33.35
2023-02-12T23:28:49.149Z,44.13
2023-02-12T23:31:22.332Z,32.45
2023-02-12T23:33:55.376Z,42.05
2023-02-12T23:36:29.550Z,43.50
2023-02-12T23:39:11.773Z,45.25
2023-02-12T23:41:44.367Z,38.28
2023-02-12T23:44:17.598Z,42.75
2023-02-12T23:46:52.367Z,43.10
2023-02-12T23:49:25.385Z,39.80
2023-02-12T23:51:57.862Z,46.85
2023-02-12T23:54:32.019Z,55.47
2023-02-12T23:57:04.788Z,41.83
2023-02-12T23:59:37.799Z,43.20
